sensor_id;sensor_type;location;lat;lon;timestamp;P1;P2;P0
79317;PMS7003;68779;50.036;19.964;2023-04-15T00:39:31;0;0;0
79317;PMS7003;68779;50.036;19.964;2023-04-15T01:09:46;0;0;0
79317;PMS7003;68779;50.036;19.964;2023-04-15T01:40:01;0;0;0
79317;PMS7003;68779;50.036;19.964;2023-04-15T02:10:15;0;0;0
79317;PMS7003;68779;50.036;19.964;2023-04-15T03:10:56;0;0;0
79317;PMS7003;68779;50.036;19.964;2023-04-15T03:41:14;0;0;0
79317;PMS7003;68779;50.036;19.964;2023-04-15T04:11:27;0;0;0
79317;PMS7003;68779;50.036;19.964;2023-04-15T04:41:41;0;0;0
79317;PMS7003;68779;50.036;19.964;2023-04-15T05:42:24;2;1;1
79317;PMS7003;68779;50.036;19.964;2023-04-15T06:12:39;1;1;0
79317;PMS7003;68779;50.036;19.964;2023-04-15T06:42:53;3;3;2
79317;PMS7003;68779;50.036;19.964;2023-04-15T07:13:10;2;2;2
79317;PMS7003;68779;50.036;19.964;2023-04-15T07:43:26;1;1;1
79317;PMS7003;68779;50.036;19.964;2023-04-15T08:13:40;1;1;1
79317;PMS7003;68779;50.036;19.964;2023-04-15T08:43:57;2;2;1
79317;PMS7003;68779;50.036;19.964;2023-04-15T09:14:16;1;1;1
79317;PMS7003;68779;50.036;19.964;2023-04-15T09:44:30;4;3;3
79317;PMS7003;68779;50.036;19.964;2023-04-15T10:14:47;1;1;0
79317;PMS7003;68779;50.036;19.964;2023-04-15T10:45:06;0;0;0
79317;PMS7003;68779;50.036;19.964;2023-04-15T11:15:33;1;1;0
79317;PMS7003;68779;50.036;19.964;2023-04-15T12:16:18;0;0;0
79317;PMS7003;68779;50.036;19.964;2023-04-15T12:46:33;2;2;2
79317;PMS7003;68779;50.036;19.964;2023-04-15T13:16:50;3;2;1
79317;PMS7003;68779;50.036;19.964;2023-04-15T13:47:05;1;1;1
79317;PMS7003;68779;50.036;19.964;2023-04-15T14:17:19;2;2;1
79317;PMS7003;68779;50.036;19.964;2023-04-15T14:47:33;4;4;4
79317;PMS7003;68779;50.036;19.964;2023-04-15T15:17:50;3;3;2
79317;PMS7003;68779;50.036;19.964;2023-04-15T15:48:04;4;4;3
79317;PMS7003;68779;50.036;19.964;2023-04-15T16:18:21;7;7;5
79317;PMS7003;68779;50.036;19.964;2023-04-15T16:48:34;3;3;3
79317;PMS7003;68779;50.036;19.964;2023-04-15T17:18:48;2;1;1
79317;PMS7003;68779;50.036;19.964;2023-04-15T17:49:02;2;2;1
79317;PMS7003;68779;50.036;19.964;2023-04-15T18:19:18;4;4;3
79317;PMS7003;68779;50.036;19.964;2023-04-15T18:49:37;8;8;6
79317;PMS7003;68779;50.036;19.964;2023-04-15T19:19:51;17;14;11
79317;PMS7003;68779;50.036;19.964;2023-04-15T20:06:40;21;20;13
79317;PMS7003;68779;50.036;19.964;2023-04-15T20:36:56;22;21;17
79317;PMS7003;68779;50.036;19.964;2023-04-15T21:07:12;22;20;12
79317;PMS7003;68779;50.036;19.964;2023-04-15T21:37:31;20;19;13
79317;PMS7003;68779;50.036;19.964;2023-04-15T22:07:45;27;24;16
79317;PMS7003;68779;50.036;19.964;2023-04-15T22:38:02;37;31;20
79317;PMS7003;68779;50.036;19.964;2023-04-15T23:08:18;36;32;22
79317;PMS7003;68779;50.036;19.964;2023-04-15T23:38:34;40;35;18
